createdAt,value
2023-03-14T00:00:18.844Z,68.45
2023-03-14T00:02:46.572Z,68.87
2023-03-14T00:05:13.940Z,67.66
2023-03-14T00:07:41.534Z,67.64
2023-03-14T00:10:13.572Z,69.29
2023-03-14T00:12:42.060Z,68.33
2023-03-14T00:15:10.917Z,68.82
2023-03-14T00:17:38.766Z,68.36
2023-03-14T00:20:12.135Z,69.22
2023-03-14T00:22:40.879Z,69.05
2023-03-14T00:25:10.409Z,68.59
2023-03-14T00:27:38.208Z,68.51
2023-03-14T00:30:09.164Z,68.41
2023-03-14T00:32:36.777Z,68.92
2023-03-14T00:35:05.392Z,68.81
2023-03-14T00:37:33.190Z,69.24
2023-03-14T00:40:00.586Z,69.14
2023-03-14T00:42:28.442Z,69.12
2023-03-14T00:44:56.064Z,68.95
2023-03-14T00:47:23.345Z,69.10
2023-03-14T00:49:51.747Z,69.83
2023-03-14T00:52:19.761Z,70.46
2023-03-14T00:54:47.089Z,71.12
2023-03-14T00:57:14.397Z,70.94
2023-03-14T00:59:42.220Z,70.19
2023-03-14T01:02:09.657Z,69.22
2023-03-14T01:04:38.850Z,69.33
2023-03-14T01:07:06.543Z,69.88
2023-03-14T01:09:33.826Z,69.40
2023-03-14T01:12:01.203Z,70.57
2023-03-14T01:14:28.946Z,69.99
2023-03-14T01:17:01.781Z,68.94
2023-03-14T01:19:29.804Z,70.47
2023-03-14T01:21:57.182Z,71.12
2023-03-14T01:24:24.517Z,71.38
2023-03-14T01:26:52.361Z,70.53
2023-03-14T01:29:19.786Z,70.64
2023-03-14T01:31:47.354Z,70.27
2023-03-14T01:34:15.172Z,70.35
2023-03-14T01:36:42.424Z,70.58
2023-03-14T01:39:10.839Z,70.54
2023-03-14T01:41:38.784Z,71.17
2023-03-14T01:44:06.354Z,72.31
2023-03-14T01:46:38.222Z,71.71
2023-03-14T01:49:30.970Z,71.81
2023-03-14T01:52:04.508Z,71.52
2023-03-14T01:54:39.754Z,71.18
2023-03-14T01:57:26.420Z,71.04
2023-03-14T01:59:59.126Z,71.85
2023-03-14T02:02:27.934Z,72.15
2023-03-14T02:04:57.450Z,71.11
2023-03-14T02:07:50.931Z,70.59
2023-03-14T02:10:23.477Z,70.79
2023-03-14T02:12:52.793Z,72.29
2023-03-14T02:15:20.626Z,73.26
2023-03-14T02:17:48.839Z,73.00
2023-03-14T02:20:43.834Z,73.71
2023-03-14T02:23:12.469Z,72.86
2023-03-14T02:25:46.423Z,73.40
2023-03-14T02:28:14.560Z,72.76
2023-03-14T02:30:42.485Z,72.52
2023-03-14T02:33:12.605Z,72.82
2023-03-14T02:36:03.773Z,72.56
2023-03-14T02:38:47.491Z,72.56
2023-03-14T02:41:16.128Z,71.71
2023-03-14T02:43:44.230Z,72.91
2023-03-14T02:46:17.150Z,73.89
2023-03-14T02:48:51.632Z,73.44
2023-03-14T02:51:19.622Z,74.51
2023-03-14T02:53:47.520Z,73.64
2023-03-14T02:56:15.210Z,73.55
2023-03-14T02:58:42.470Z,72.84
2023-03-14T03:01:10.702Z,72.64
2023-03-14T03:03:38.825Z,72.80
2023-03-14T03:06:06.549Z,73.27
2023-03-14T03:08:34.550Z,72.91
2023-03-14T03:11:01.835Z,73.27
2023-03-14T03:13:30.622Z,72.81
2023-03-14T03:15:58.578Z,71.71
2023-03-14T03:18:25.933Z,70.42
2023-03-14T03:20:55.008Z,70.73
2023-03-14T03:23:23.408Z,71.37
2023-03-14T03:25:52.228Z,71.40
2023-03-14T03:28:20.661Z,71.55
2023-03-14T03:30:48.368Z,71.71
2023-03-14T03:33:15.921Z,72.25
2023-03-14T03:35:45.779Z,74.61
2023-03-14T03:38:14.471Z,74.98
2023-03-14T03:40:43.570Z,77.19
2023-03-14T03:43:12.203Z,75.90
2023-03-14T03:45:40.716Z,76.52
2023-03-14T03:48:08.129Z,76.92
2023-03-14T03:50:35.570Z,76.79
2023-03-14T03:53:03.320Z,76.83
2023-03-14T03:55:30.697Z,76.45
2023-03-14T03:57:58.682Z,76.04
2023-03-14T04:00:26.396Z,75.81
2023-03-14T04:02:54.264Z,74.57
2023-03-14T04:05:22.170Z,74.57
2023-03-14T04:07:49.948Z,76.21
2023-03-14T04:10:17.903Z,75.37
2023-03-14T04:12:47.448Z,75.25
2023-03-14T04:15:15.472Z,74.29
2023-03-14T04:17:43.411Z,73.71
2023-03-14T04:20:14.061Z,74.60
2023-03-14T04:22:44.474Z,74.33
2023-03-14T04:25:12.469Z,73.91
2023-03-14T04:27:41.297Z,74.96
2023-03-14T04:30:10.003Z,74.46
2023-03-14T04:32:41.115Z,74.60
2023-03-14T04:35:08.850Z,75.37
2023-03-14T04:37:36.331Z,75.57
2023-03-14T04:40:07.433Z,75.32
2023-03-14T04:42:34.866Z,74.96
2023-03-14T04:45:02.708Z,74.72
2023-03-14T04:47:30.845Z,74.92
2023-03-14T04:49:58.485Z,75.77
2023-03-14T04:52:27.560Z,74.84
2023-03-14T04:54:56.126Z,75.44
2023-03-14T04:57:24.077Z,75.53
2023-03-14T04:59:52.026Z,74.74
2023-03-14T05:02:23.009Z,73.90
2023-03-14T05:04:50.601Z,74.56
2023-03-14T05:07:20.347Z,74.15
2023-03-14T05:09:48.384Z,73.70
2023-03-14T05:12:18.399Z,73.26
2023-03-14T05:14:46.206Z,72.33
2023-03-14T05:17:15.602Z,73.09
2023-03-14T05:19:43.432Z,74.46
2023-03-14T05:22:11.825Z,75.45
2023-03-14T05:24:40.083Z,75.75
2023-03-14T05:27:07.897Z,75.87
2023-03-14T05:29:35.298Z,75.59
2023-03-14T05:32:03.300Z,74.52
2023-03-14T05:34:30.923Z,75.36
2023-03-14T05:37:01.386Z,75.30
2023-03-14T05:39:29.206Z,74.66
2023-03-14T05:41:57.306Z,73.45
2023-03-14T05:44:25.313Z,73.32
2023-03-14T05:46:53.571Z,74.73
2023-03-14T05:49:21.181Z,76.11
2023-03-14T05:51:48.953Z,75.58
2023-03-14T05:54:17.083Z,74.91
2023-03-14T05:56:44.873Z,74.03
2023-03-14T05:59:12.505Z,74.12
2023-03-14T06:01:40.427Z,74.02
2023-03-14T06:04:08.698Z,73.65
2023-03-14T06:06:36.279Z,73.30
2023-03-14T06:09:04.011Z,72.49
2023-03-14T06:11:32.569Z,71.38
2023-03-14T06:13:59.956Z,70.78
2023-03-14T06:16:27.455Z,70.81
2023-03-14T06:18:55.250Z,70.19
2023-03-14T06:21:23.504Z,68.93
2023-03-14T06:23:50.918Z,69.75
2023-03-14T06:26:18.774Z,68.90
2023-03-14T06:28:46.130Z,68.45
2023-03-14T06:31:13.513Z,68.94
2023-03-14T06:33:41.453Z,69.49
2023-03-14T06:36:09.403Z,69.46
2023-03-14T06:38:36.915Z,69.09
2023-03-14T06:41:08.682Z,68.33
2023-03-14T06:43:36.435Z,66.94
2023-03-14T06:46:04.529Z,65.57
2023-03-14T06:48:32.787Z,66.05
2023-03-14T06:51:00.226Z,65.64
2023-03-14T06:53:27.715Z,65.35
2023-03-14T06:55:55.604Z,64.72
2023-03-14T06:58:22.939Z,64.26
2023-03-14T07:00:50.428Z,63.65
2023-03-14T07:03:19.393Z,62.28
2023-03-14T07:05:47.853Z,61.78
2023-03-14T07:08:15.223Z,61.79
2023-03-14T07:10:44.218Z,61.48
2023-03-14T07:13:11.797Z,61.64
2023-03-14T07:15:40.334Z,61.51
2023-03-14T07:18:08.356Z,61.74
2023-03-14T07:20:35.761Z,61.86
2023-03-14T07:23:04.419Z,60.39
2023-03-14T07:25:33.008Z,57.25
2023-03-14T07:28:00.454Z,55.85
2023-03-14T07:30:28.202Z,55.52
2023-03-14T07:32:56.465Z,55.13
2023-03-14T07:35:24.264Z,55.20
2023-03-14T07:37:52.004Z,51.96
2023-03-14T07:40:20.929Z,51.15
2023-03-14T07:42:49.398Z,50.98
2023-03-14T07:45:18.191Z,51.38
2023-03-14T07:47:46.065Z,50.84
2023-03-14T07:50:13.624Z,51.36
2023-03-14T07:52:41.025Z,50.58
2023-03-14T07:55:09.229Z,49.24
2023-03-14T07:57:36.594Z,49.46
2023-03-14T08:00:06.546Z,48.87
2023-03-14T08:02:40.340Z,47.91
2023-03-14T08:05:08.711Z,46.98
2023-03-14T08:07:36.145Z,46.30
2023-03-14T08:10:03.953Z,45.58
2023-03-14T08:12:31.730Z,45.03
2023-03-14T08:15:00.789Z,45.89
2023-03-14T08:17:29.000Z,44.82
2023-03-14T08:19:56.695Z,44.55
2023-03-14T08:22:24.040Z,44.24
2023-03-14T08:24:51.363Z,44.23
2023-03-14T08:27:19.200Z,44.13
2023-03-14T08:29:46.622Z,43.33
2023-03-14T08:32:14.148Z,42.60
2023-03-14T08:34:41.920Z,43.32
2023-03-14T08:37:19.960Z,41.84
2023-03-14T08:39:54.736Z,41.64
2023-03-14T08:42:22.067Z,40.98
2023-03-14T08:44:49.546Z,41.47
2023-03-14T08:47:17.301Z,40.76
2023-03-14T08:49:44.698Z,39.70
2023-03-14T08:52:12.467Z,39.86
2023-03-14T08:54:40.171Z,40.37
2023-03-14T08:57:07.712Z,40.19
2023-03-14T08:59:35.056Z,40.13
2023-03-14T09:02:04.650Z,38.48
2023-03-14T09:04:32.387Z,38.52
2023-03-14T09:07:00.751Z,38.02
2023-03-14T09:09:28.634Z,38.30
2023-03-14T09:11:56.057Z,37.71
2023-03-14T09:14:23.803Z,36.35
2023-03-14T09:16:52.066Z,36.85
2023-03-14T09:19:19.498Z,35.81
2023-03-14T09:21:46.859Z,37.58
2023-03-14T09:24:14.527Z,36.34
2023-03-14T09:26:42.043Z,36.27
2023-03-14T09:29:09.683Z,35.80
2023-03-14T09:31:37.542Z,34.84
2023-03-14T09:34:05.274Z,36.11
2023-03-14T09:36:32.834Z,35.92
2023-03-14T09:39:00.503Z,35.76
2023-03-14T09:41:32.861Z,35.79
2023-03-14T09:44:13.609Z,34.73
2023-03-14T09:46:44.163Z,34.44
2023-03-14T09:49:24.881Z,35.06
2023-03-14T09:51:55.575Z,34.62
2023-03-14T09:54:44.173Z,34.38
2023-03-14T09:57:19.480Z,34.77
2023-03-14T09:59:49.820Z,35.06
2023-03-14T10:02:32.894Z,33.63
2023-03-14T10:05:06.653Z,33.77
2023-03-14T10:07:34.634Z,33.74
2023-03-14T10:10:02.424Z,32.31
2023-03-14T10:12:35.410Z,33.40
2023-03-14T10:15:06.554Z,33.10
2023-03-14T10:17:44.336Z,33.62
2023-03-14T10:20:43.637Z,33.70
2023-03-14T10:23:13.951Z,33.45
2023-03-14T10:25:47.157Z,33.47
2023-03-14T10:28:32.908Z,33.10
2023-03-14T10:31:01.322Z,34.32
2023-03-14T10:33:31.104Z,33.48
2023-03-14T10:36:04.617Z,33.20
2023-03-14T10:38:37.823Z,32.80
2023-03-14T10:41:20.055Z,33.81
2023-03-14T10:43:52.458Z,33.68
2023-03-14T10:46:21.781Z,32.48
2023-03-14T10:49:07.223Z,31.97
2023-03-14T10:51:35.213Z,31.78
2023-03-14T10:54:13.512Z,31.55
2023-03-14T10:56:41.310Z,32.05
2023-03-14T10:59:14.774Z,31.34
2023-03-14T11:02:00.326Z,31.16
2023-03-14T11:04:54.713Z,31.19
2023-03-14T11:07:31.872Z,30.71
2023-03-14T11:10:35.141Z,31.54
2023-03-14T11:14:02.171Z,30.64
2023-03-14T11:16:49.097Z,30.66
2023-03-14T11:19:50.407Z,30.79
2023-03-14T11:22:42.573Z,31.17
2023-03-14T11:25:35.874Z,30.95
2023-03-14T11:28:16.136Z,30.67
2023-03-14T11:30:46.577Z,30.70
2023-03-14T11:33:18.172Z,30.12
2023-03-14T11:35:53.147Z,31.04
2023-03-14T11:38:36.325Z,30.17
2023-03-14T11:41:06.910Z,29.71
2023-03-14T11:43:41.348Z,29.66
2023-03-14T11:46:17.673Z,30.39
2023-03-14T11:49:28.690Z,29.71
2023-03-14T11:52:04.277Z,29.20
2023-03-14T11:54:44.107Z,28.55
2023-03-14T11:57:16.112Z,28.53
2023-03-14T11:59:55.609Z,28.70
2023-03-14T12:02:33.275Z,28.14
2023-03-14T12:05:28.219Z,27.96
2023-03-14T12:08:10.788Z,28.27
2023-03-14T12:11:24.682Z,27.75
2023-03-14T12:13:54.323Z,28.01
2023-03-14T12:16:25.126Z,27.33
2023-03-14T12:18:54.889Z,27.82
2023-03-14T12:21:24.808Z,26.78
2023-03-14T12:23:54.551Z,28.18
2023-03-14T12:26:27.957Z,27.71
2023-03-14T12:28:58.753Z,27.32
2023-03-14T12:31:35.162Z,27.16
2023-03-14T12:34:06.803Z,27.42
2023-03-14T12:36:52.202Z,26.90
2023-03-14T12:39:31.956Z,26.65
2023-03-14T12:42:42.447Z,26.71
2023-03-14T12:45:22.280Z,26.21
2023-03-14T12:48:02.572Z,26.84
2023-03-14T12:50:36.850Z,26.38
2023-03-14T12:53:29.209Z,26.17
2023-03-14T12:56:15.936Z,25.97
2023-03-14T12:58:55.700Z,26.53
2023-03-14T13:01:23.491Z,25.95
2023-03-14T13:03:58.102Z,26.07
2023-03-14T13:06:57.981Z,26.15
2023-03-14T13:09:55.050Z,26.54
2023-03-14T13:12:31.901Z,26.27
2023-03-14T13:15:01.499Z,26.00
2023-03-14T13:17:36.841Z,25.83
2023-03-14T13:20:16.251Z,26.26
2023-03-14T13:22:47.694Z,26.33
2023-03-14T13:25:15.323Z,26.42
2023-03-14T13:27:43.540Z,26.31
2023-03-14T13:30:29.125Z,26.74
2023-03-14T13:32:57.570Z,26.16
2023-03-14T13:35:28.919Z,25.78
2023-03-14T13:38:11.589Z,25.29
2023-03-14T13:40:40.175Z,25.80
2023-03-14T13:43:18.205Z,25.77
2023-03-14T13:45:49.943Z,25.58
2023-03-14T13:48:18.837Z,25.70
2023-03-14T13:51:00.736Z,25.83
2023-03-14T13:53:28.666Z,26.44
2023-03-14T13:55:56.505Z,26.55
2023-03-14T13:58:27.149Z,25.71
2023-03-14T14:01:02.052Z,26.03
2023-03-14T14:03:33.460Z,26.29
2023-03-14T14:06:01.216Z,25.42
2023-03-14T14:08:28.819Z,25.85
2023-03-14T14:11:02.837Z,25.76
2023-03-14T14:13:35.531Z,25.31
2023-03-14T14:16:05.090Z,25.78
2023-03-14T14:18:34.927Z,25.32
2023-03-14T14:21:03.960Z,25.18
2023-03-14T14:23:32.877Z,25.36
2023-03-14T14:26:01.198Z,24.93
2023-03-14T14:28:31.878Z,25.54
2023-03-14T14:31:18.382Z,25.23
2023-03-14T14:33:54.173Z,25.21
2023-03-14T14:36:29.024Z,25.02
2023-03-14T14:39:06.067Z,25.05
2023-03-14T14:41:36.793Z,24.48
2023-03-14T14:44:05.963Z,25.16
2023-03-14T14:46:36.827Z,24.18
2023-03-14T14:49:13.607Z,24.16
2023-03-14T14:51:50.454Z,24.05
2023-03-14T14:54:21.115Z,24.53
2023-03-14T14:56:54.763Z,24.40
2023-03-14T14:59:30.059Z,24.77
2023-03-14T15:02:03.714Z,25.46
2023-03-14T15:04:32.645Z,25.87
2023-03-14T15:07:00.124Z,26.13
2023-03-14T15:09:27.649Z,25.73
2023-03-14T15:11:55.435Z,26.00
2023-03-14T15:14:22.779Z,26.72
2023-03-14T15:16:52.119Z,26.62
2023-03-14T15:19:27.078Z,26.80
2023-03-14T15:21:55.082Z,27.23
2023-03-14T15:24:23.947Z,28.07
2023-03-14T15:26:52.697Z,28.54
2023-03-14T15:29:20.305Z,28.18
2023-03-14T15:31:48.589Z,28.77
2023-03-14T15:34:16.117Z,28.97
2023-03-14T15:36:43.742Z,29.95
2023-03-14T15:39:12.651Z,30.18
2023-03-14T15:41:40.117Z,30.88
2023-03-14T15:44:07.425Z,31.18
2023-03-14T15:46:35.376Z,31.28
2023-03-14T15:49:03.170Z,31.78
2023-03-14T15:51:30.598Z,31.89
2023-03-14T15:53:58.380Z,31.92
2023-03-14T15:56:27.579Z,32.72
2023-03-14T15:58:55.190Z,33.00
2023-03-14T16:01:23.122Z,32.91
2023-03-14T16:03:52.384Z,33.19
2023-03-14T16:06:20.352Z,33.80
2023-03-14T16:08:47.681Z,34.07
2023-03-14T16:11:16.234Z,34.44
2023-03-14T16:13:43.554Z,34.21
2023-03-14T16:16:13.330Z,34.64
2023-03-14T16:18:41.706Z,34.71
2023-03-14T16:21:14.084Z,35.18
2023-03-14T16:23:42.472Z,35.15
2023-03-14T16:26:13.435Z,35.51
2023-03-14T16:28:40.832Z,35.78
2023-03-14T16:31:11.317Z,35.71
2023-03-14T16:33:39.711Z,36.25
2023-03-14T16:36:10.938Z,36.44
2023-03-14T16:38:40.974Z,36.19
2023-03-14T16:41:15.886Z,36.07
2023-03-14T16:43:44.131Z,36.05
2023-03-14T16:46:17.338Z,35.99
2023-03-14T16:48:45.291Z,36.37
2023-03-14T16:51:14.335Z,35.92
2023-03-14T16:53:41.665Z,36.62
2023-03-14T16:56:09.691Z,36.21
2023-03-14T16:58:37.633Z,36.66
2023-03-14T17:01:10.678Z,36.83
2023-03-14T17:03:41.126Z,37.36
2023-03-14T17:06:12.455Z,37.42
2023-03-14T17:08:40.510Z,37.56
2023-03-14T17:11:08.597Z,37.56
2023-03-14T17:13:36.669Z,37.99
2023-03-14T17:16:04.982Z,38.23
2023-03-14T17:18:32.839Z,38.58
2023-03-14T17:21:01.992Z,38.32
2023-03-14T17:23:32.178Z,38.47
2023-03-14T17:26:00.112Z,38.70
2023-03-14T17:28:28.006Z,39.31
2023-03-14T17:31:03.717Z,39.36
2023-03-14T17:33:31.421Z,39.64
2023-03-14T17:36:01.493Z,38.89
2023-03-14T17:38:29.233Z,38.62
2023-03-14T17:40:56.900Z,38.77
2023-03-14T17:43:24.736Z,39.00
2023-03-14T17:45:59.915Z,39.33
2023-03-14T17:48:28.423Z,39.09
2023-03-14T17:50:58.948Z,39.57
2023-03-14T17:53:28.460Z,39.49
2023-03-14T17:55:55.833Z,39.07
2023-03-14T17:58:29.998Z,40.00
2023-03-14T18:00:57.892Z,40.19
2023-03-14T18:03:29.281Z,40.04
2023-03-14T18:05:58.414Z,40.07
2023-03-14T18:08:26.767Z,41.02
2023-03-14T18:10:56.593Z,40.88
2023-03-14T18:13:24.204Z,40.73
2023-03-14T18:15:52.962Z,40.03
2023-03-14T18:18:21.383Z,41.12
2023-03-14T18:20:51.081Z,41.20
2023-03-14T18:23:19.073Z,40.63
2023-03-14T18:25:50.018Z,40.53
2023-03-14T18:28:19.542Z,41.42
2023-03-14T18:30:52.574Z,41.25
2023-03-14T18:33:23.405Z,41.86
2023-03-14T18:35:53.958Z,42.06
2023-03-14T18:38:21.462Z,41.79
2023-03-14T18:40:48.866Z,42.10
2023-03-14T18:43:16.541Z,42.31
2023-03-14T18:45:44.031Z,42.35
2023-03-14T18:48:11.339Z,42.41
2023-03-14T18:50:39.104Z,42.45
2023-03-14T18:53:06.697Z,43.32
2023-03-14T18:55:35.407Z,43.54
2023-03-14T18:58:03.224Z,43.68
2023-03-14T19:00:30.622Z,43.96
2023-03-14T19:02:57.964Z,44.29
2023-03-14T19:05:27.491Z,44.74
2023-03-14T19:07:58.190Z,44.43
2023-03-14T19:10:26.683Z,45.30
2023-03-14T19:12:54.080Z,45.15
2023-03-14T19:15:21.525Z,45.80
2023-03-14T19:17:49.305Z,46.26
2023-03-14T19:20:19.555Z,46.78
2023-03-14T19:22:53.063Z,46.98
2023-03-14T19:25:21.201Z,47.95
2023-03-14T19:28:08.580Z,47.34
2023-03-14T19:30:51.159Z,48.27
2023-03-14T19:33:20.466Z,48.52
2023-03-14T19:35:48.769Z,49.08
2023-03-14T19:38:18.004Z,49.27
2023-03-14T19:40:47.133Z,48.96
2023-03-14T19:43:17.571Z,49.67
2023-03-14T19:45:46.647Z,49.81
2023-03-14T19:48:15.123Z,50.34
2023-03-14T19:50:43.995Z,50.50
2023-03-14T19:53:12.506Z,50.71
2023-03-14T19:55:46.629Z,50.86
2023-03-14T19:58:14.123Z,50.97
2023-03-14T20:00:41.939Z,51.28
2023-03-14T20:03:10.065Z,51.76
2023-03-14T20:05:40.169Z,51.69
2023-03-14T20:08:08.515Z,52.09
2023-03-14T20:10:37.423Z,52.37
2023-03-14T20:13:15.643Z,52.73
2023-03-14T20:15:47.142Z,52.77
2023-03-14T20:18:14.853Z,53.09
2023-03-14T20:20:44.196Z,53.36
2023-03-14T20:23:14.840Z,53.23
2023-03-14T20:25:43.519Z,53.11
2023-03-14T20:28:11.182Z,53.15
2023-03-14T20:30:39.169Z,52.96
2023-03-14T20:33:06.917Z,52.87
2023-03-14T20:35:34.788Z,53.49
2023-03-14T20:38:02.860Z,53.26
2023-03-14T20:40:30.603Z,53.38
2023-03-14T20:42:58.327Z,53.66
2023-03-14T20:45:26.265Z,53.89
2023-03-14T20:47:53.861Z,54.26
2023-03-14T20:50:21.556Z,54.51
2023-03-14T20:52:49.432Z,55.24
2023-03-14T20:55:17.184Z,55.61
2023-03-14T20:57:44.884Z,55.71
2023-03-14T21:00:16.043Z,55.92
2023-03-14T21:02:43.876Z,55.80
2023-03-14T21:05:12.247Z,56.42
2023-03-14T21:07:41.821Z,57.11
2023-03-14T21:10:14.303Z,56.89
2023-03-14T21:12:42.326Z,57.07
2023-03-14T21:15:10.167Z,57.84
2023-03-14T21:17:39.749Z,58.57
2023-03-14T21:20:11.706Z,58.54
2023-03-14T21:22:39.514Z,58.51
2023-03-14T21:25:07.360Z,58.54
2023-03-14T21:27:38.555Z,59.55
2023-03-14T21:30:06.973Z,60.31
2023-03-14T21:32:34.830Z,60.67
2023-03-14T21:35:02.353Z,60.41
2023-03-14T21:37:29.846Z,60.94
2023-03-14T21:39:57.548Z,60.19
2023-03-14T21:42:25.687Z,59.52
2023-03-14T21:44:53.127Z,59.44
2023-03-14T21:47:23.726Z,59.51
2023-03-14T21:49:52.031Z,59.31
2023-03-14T21:52:19.972Z,58.85
2023-03-14T21:54:48.366Z,59.04
2023-03-14T21:57:16.817Z,58.41
2023-03-14T21:59:45.833Z,57.95
2023-03-14T22:02:19.226Z,57.79
2023-03-14T22:04:46.967Z,57.34
2023-03-14T22:07:18.596Z,57.52
2023-03-14T22:09:47.771Z,57.53
2023-03-14T22:12:19.827Z,57.49
2023-03-14T22:14:48.276Z,58.09
2023-03-14T22:17:15.712Z,58.38
2023-03-14T22:19:43.051Z,58.95
2023-03-14T22:22:10.849Z,59.21
2023-03-14T22:24:38.256Z,59.70
2023-03-14T22:27:05.721Z,58.55
2023-03-14T22:29:34.619Z,59.60
2023-03-14T22:32:01.964Z,60.51
2023-03-14T22:34:31.817Z,60.53
2023-03-14T22:37:01.224Z,59.46
2023-03-14T22:39:29.321Z,60.05
2023-03-14T22:41:57.017Z,59.24
2023-03-14T22:44:24.907Z,59.17
2023-03-14T22:46:52.269Z,59.19
2023-03-14T22:49:19.616Z,59.07
2023-03-14T22:51:47.271Z,59.20
2023-03-14T22:54:14.616Z,58.99
2023-03-14T22:56:42.158Z,58.98
2023-03-14T22:59:09.894Z,59.15
2023-03-14T23:01:37.284Z,59.00
2023-03-14T23:04:05.092Z,59.00
2023-03-14T23:06:32.708Z,58.73
2023-03-14T23:08:59.999Z,59.34
2023-03-14T23:11:27.700Z,59.03
2023-03-14T23:13:55.287Z,58.70
2023-03-14T23:16:34.169Z,58.80
2023-03-14T23:19:09.955Z,58.64
2023-03-14T23:21:37.482Z,58.49
2023-03-14T23:24:06.229Z,59.07
2023-03-14T23:26:35.948Z,59.10
2023-03-14T23:29:07.525Z,58.84
2023-03-14T23:31:35.205Z,59.01
2023-03-14T23:34:02.959Z,59.46
2023-03-14T23:36:30.308Z,59.69
2023-03-14T23:38:57.944Z,60.12
2023-03-14T23:41:25.308Z,59.71
2023-03-14T23:43:52.822Z,59.91
2023-03-14T23:46:21.947Z,58.74
2023-03-14T23:48:49.295Z,58.35
2023-03-14T23:51:17.242Z,58.53
2023-03-14T23:53:44.967Z,58.39
2023-03-14T23:56:13.737Z,58.58
2023-03-14T23:58:41.826Z,59.49
